< < Back
Terminal Aerodrome Forecast


Current Version              Previous Versions:   1  2  3  4  5  6  7  8  9  

Terminal Aerodrome Forecast

954
FTUS42 KFFC 040849 AAA
TAFMCN
TAF AMD
KMCN 040849Z 0409/0506 11003KT 1/4SM FG VV001
      TEMPO 0409/0411 1/2SM FG
     FM041100 00000KT 1SM BR BKN003
     FM041200 20006KT 3SM BR BKN012
     FM041400 21010G15KT P6SM BKN035
     FM050000 20006KT P6SM BKN040=



Latest METAR

537
SAUS80 KWBC 041300 RRA
MTRMCN
METAR KMCN 041253Z 00000KT 1/4SM FG BKN005 OVC012 12/12 A3009 RMK AO2
SLP186 T01220122


USA.gov is the U.S. government's official web portal to all federal, state and local government web resources and services.